Time;durP1;ratioP1;P1;durP2;ratioP2;P2;SDS_P1;SDS_P2;PMS_P1;PMS_P2;Temp;Humidity;BMP_temperature;BMP_pressure;BME280_temperature;BME280_humidity;BME280_pressure;Samples;Min_cycle;Max_cycle;Signal;HPM_P1;HPM_P2
2023/07/29 00:00:13;;;;;;;3.80;2.40;;;;;;;-140.66;100.00;55571.53;5100086;28;20495;-76
2023/07/29 00:02:58;;;;;;;5.13;2.40;;;;;;;-140.66;100.00;55571.53;5114101;28;20034;-76
2023/07/29 00:05:45;;;;;;;3.47;2.30;;;;;;;-140.66;100.00;55571.53;5115159;28;20034;-76
2023/07/29 00:08:30;;;;;;;4.38;2.28;;;;;;;-140.66;100.00;55571.53;5114303;28;20440;-75
2023/07/29 00:11:16;;;;;;;4.32;2.47;;;;;;;-140.66;100.00;55571.53;5114463;28;20031;-76
2023/07/29 00:14:02;;;;;;;3.60;2.72;;;;;;;-140.66;100.00;55571.53;5114885;28;20034;-76
2023/07/29 00:16:48;;;;;;;5.20;2.42;;;;;;;-140.66;100.00;55571.53;5099945;28;20352;-75
2023/07/29 00:19:34;;;;;;;5.10;2.70;;;;;;;-140.66;100.00;55571.53;5113598;28;20092;-76
2023/07/29 00:22:20;;;;;;;4.15;2.50;;;;;;;-140.66;100.00;55571.53;5114104;28;20043;-75
2023/07/29 00:25:06;;;;;;;4.57;2.60;;;;;;;-140.66;100.00;55571.53;5113989;28;20020;-75
2023/07/29 00:27:51;;;;;;;3.50;2.60;;;;;;;-140.66;100.00;55571.53;5113879;28;20027;-76
2023/07/29 00:30:37;;;;;;;5.78;2.47;;;;;;;-140.66;100.00;55571.53;5098985;28;20097;-76
2023/07/29 00:33:23;;;;;;;3.28;2.58;;;;;;;-140.66;100.00;55571.53;5100662;28;20034;-77
2023/07/29 00:36:08;;;;;;;3.03;2.53;;;;;;;-140.66;100.00;55571.53;5101007;28;20032;-76
2023/07/29 00:38:56;;;;;;;4.25;2.38;;;;;;;-140.66;100.00;55571.53;5099232;28;20083;-75
2023/07/29 00:41:42;;;;;;;2.80;2.50;;;;;;;-140.66;100.00;55571.53;5114823;28;20070;-76
2023/07/29 00:44:28;;;;;;;5.07;2.55;;;;;;;-140.66;100.00;55571.53;5114435;28;20023;-76
2023/07/29 00:47:16;;;;;;;4.72;2.53;;;;;;;-140.66;100.00;55571.53;5117360;28;20023;-75
2023/07/29 00:50:03;;;;;;;5.13;2.90;;;;;;;-140.66;100.00;55571.53;5118801;28;20470;-74
2023/07/29 00:52:49;;;;;;;3.90;2.50;;;;;;;-140.66;100.00;55571.53;5118325;28;20027;-76
2023/07/29 00:55:35;;;;;;;3.78;2.33;;;;;;;-140.66;100.00;55571.53;5103364;28;20020;-75
2023/07/29 00:58:21;;;;;;;3.67;2.80;;;;;;;-140.66;100.00;55571.53;5118773;28;20390;-75
2023/07/29 01:01:07;;;;;;;3.05;2.45;;;;;;;-140.66;100.00;55571.53;5118024;28;20505;-75
2023/07/29 01:03:53;;;;;;;4.53;2.55;;;;;;;-140.66;100.00;55571.53;5123084;28;20058;-75
2023/07/29 01:06:58;;;;;;;3.20;2.60;;;;;;;-140.66;100.00;55571.53;5125615;28;20023;-75
2023/07/29 01:09:53;;;;;;;3.53;2.53;;;;;;;-140.66;100.00;55571.53;5119051;28;20375;-75
2023/07/29 01:12:41;;;;;;;3.95;2.78;;;;;;;-140.66;100.00;55571.53;5117168;28;20058;-75
2023/07/29 01:15:51;;;;;;;4.57;2.80;;;;;;;-140.66;100.00;55571.53;5118142;28;20032;-75
2023/07/29 01:18:39;;;;;;;4.30;2.65;;;;;;;-140.66;100.00;55571.53;5117537;28;20027;-75
2023/07/29 01:21:26;;;;;;;6.85;3.10;;;;;;;-140.66;100.00;55571.53;5103127;28;20180;-75
2023/07/29 01:24:12;;;;;;;3.78;2.67;;;;;;;-140.66;100.00;55571.53;5113597;28;20356;-75
2023/07/29 01:26:58;;;;;;;4.85;2.97;;;;;;;-140.66;100.00;55571.53;5117452;28;20019;-75
2023/07/29 01:29:44;;;;;;;4.90;3.00;;;;;;;-140.66;100.00;55571.53;5117294;28;20470;-75
2023/07/29 01:32:39;;;;;;;3.92;2.70;;;;;;;-140.66;100.00;55571.53;5118150;28;20038;-75
2023/07/29 01:35:31;;;;;;;4.97;2.55;;;;;;;-140.66;100.00;55571.53;5117338;28;20024;-75
2023/07/29 01:38:40;;;;;;;3.75;2.53;;;;;;;-140.66;100.00;55571.53;5116616;28;20034;-75
2023/07/29 01:41:26;;;;;;;5.65;2.90;;;;;;;-140.66;100.00;55571.53;5116648;28;20039;-75
2023/07/29 01:44:13;;;;;;;3.95;2.80;;;;;;;-140.66;100.00;55571.53;5089483;28;20118;-75
2023/07/29 01:46:59;;;;;;;3.92;2.60;;;;;;;-140.66;100.00;55571.53;5117678;28;20043;-76
2023/07/29 01:49:45;;;;;;;4.25;2.78;;;;;;;-140.66;100.00;55571.53;5117256;28;20031;-75
2023/07/29 01:52:31;;;;;;;3.03;2.60;;;;;;;-140.66;100.00;55571.53;5116877;28;20081;-74
2023/07/29 01:55:16;;;;;;;2.83;2.50;;;;;;;-140.66;100.00;55571.53;5102606;28;20023;-75
2023/07/29 01:58:02;;;;;;;4.00;2.75;;;;;;;-140.66;100.00;55571.53;5116566;28;20050;-75
2023/07/29 02:00:48;;;;;;;4.90;2.67;;;;;;;-140.66;100.00;55571.53;5102935;28;20038;-76
2023/07/29 02:03:34;;;;;;;4.53;2.70;;;;;;;-140.66;100.00;55571.53;5116792;28;20088;-75
2023/07/29 02:06:19;;;;;;;3.80;2.65;;;;;;;-140.66;100.00;55571.53;5103656;28;20024;-75
2023/07/29 02:09:05;;;;;;;3.42;2.72;;;;;;;-140.66;100.00;55571.53;5102491;28;20028;-74
2023/07/29 02:11:51;;;;;;;5.03;2.95;;;;;;;-140.66;100.00;55571.53;5103232;28;20023;-74
2023/07/29 02:14:37;;;;;;;2.85;2.55;;;;;;;-140.66;100.00;55571.53;5103514;28;20027;-74
2023/07/29 02:17:23;;;;;;;3.60;2.65;;;;;;;-140.66;100.00;55571.53;5102379;28;20028;-74
2023/07/29 02:20:10;;;;;;;9.20;5.75;;;;;;;-140.66;100.00;55571.53;5102897;28;20133;-74
2023/07/29 02:22:56;;;;;;;4.80;3.00;;;;;;;-140.66;100.00;55571.53;5118192;28;20046;-75
2023/07/29 02:25:42;;;;;;;3.40;2.70;;;;;;;-140.66;100.00;55571.53;5116265;28;20183;-75
2023/07/29 02:28:27;;;;;;;3.97;2.97;;;;;;;-140.66;100.00;55571.53;5102656;28;20114;-75
2023/07/29 02:31:24;;;;;;;3.95;2.70;;;;;;;-140.66;100.00;55571.53;5117811;28;20092;-76
2023/07/29 02:34:10;;;;;;;3.78;2.65;;;;;;;-140.66;100.00;55571.53;5103262;28;20176;-76
2023/07/29 02:36:56;;;;;;;5.63;2.83;;;;;;;-140.66;100.00;55571.53;5117072;28;20024;-76
2023/07/29 02:39:42;;;;;;;4.72;2.90;;;;;;;-140.66;100.00;55571.53;5116387;28;20023;-75
2023/07/29 02:42:27;;;;;;;5.75;3.17;;;;;;;-140.66;100.00;55571.53;5101563;28;20103;-76
2023/07/29 02:45:13;;;;;;;4.63;3.10;;;;;;;-140.66;100.00;55571.53;5115756;28;20023;-75
2023/07/29 02:47:59;;;;;;;3.17;2.78;;;;;;;-140.66;100.00;55571.53;5116120;28;20024;-76
2023/07/29 02:50:45;;;;;;;6.10;2.92;;;;;;;-140.66;100.00;55571.53;5115817;28;20024;-76
2023/07/29 02:53:30;;;;;;;5.00;3.33;;;;;;;-140.66;100.00;55571.53;5115215;28;20356;-76
2023/07/29 02:56:16;;;;;;;4.07;3.10;;;;;;;-140.66;100.00;55571.53;5115243;28;20106;-75
2023/07/29 02:59:02;;;;;;;6.57;2.75;;;;;;;-140.66;100.00;55571.53;5114490;28;20015;-75
2023/07/29 03:01:48;;;;;;;4.40;2.90;;;;;;;-140.66;100.00;55571.53;5115610;28;20019;-75
2023/07/29 03:04:33;;;;;;;4.90;2.85;;;;;;;-140.66;100.00;55571.53;5115277;28;20038;-76
2023/07/29 03:07:20;;;;;;;3.33;3.00;;;;;;;-140.66;100.00;55571.53;5115301;28;20347;-76
2023/07/29 03:10:06;;;;;;;3.22;2.90;;;;;;;-140.66;100.00;55571.53;5115147;28;20098;-76
2023/07/29 03:12:57;;;;;;;4.35;2.75;;;;;;;-140.66;100.00;55571.53;5115123;28;20104;-76
2023/07/29 03:15:43;;;;;;;4.03;3.20;;;;;;;-140.66;100.00;55571.53;5116351;28;20020;-75
2023/07/29 03:18:28;;;;;;;5.03;2.78;;;;;;;-140.66;100.00;55571.53;5114979;28;20024;-75
2023/07/29 03:21:14;;;;;;;7.70;2.97;;;;;;;-140.66;100.00;55571.53;5113797;28;20039;-75
2023/07/29 03:24:00;;;;;;;17.60;3.22;;;;;;;-140.66;100.00;55571.53;5115182;28;20031;-74
2023/07/29 03:26:46;;;;;;;6.22;2.60;;;;;;;-140.66;100.00;55571.53;5116008;28;20028;-75
2023/07/29 03:29:31;;;;;;;5.38;2.80;;;;;;;-140.66;100.00;55571.53;5114694;28;20089;-76
2023/07/29 03:32:17;;;;;;;6.30;2.72;;;;;;;-140.66;100.00;55571.53;5128288;28;20077;-75
2023/07/29 03:35:04;;;;;;;6.50;3.22;;;;;;;-140.66;100.00;55571.53;5120213;28;20325;-75
2023/07/29 03:37:50;;;;;;;5.60;3.17;;;;;;;-140.66;100.00;55571.53;5116033;28;20461;-74
2023/07/29 03:40:35;;;;;;;6.80;3.00;;;;;;;-140.66;100.00;55571.53;5100027;28;20027;-74
2023/07/29 03:43:21;;;;;;;5.82;3.10;;;;;;;-140.66;100.00;55571.53;5115551;28;20031;-75
2023/07/29 03:46:07;;;;;;;5.75;2.97;;;;;;;-140.66;100.00;55571.53;5114279;28;20031;-75
2023/07/29 03:48:53;;;;;;;6.47;2.88;;;;;;;-140.66;100.00;55571.53;5114546;28;20027;-75
2023/07/29 03:51:38;;;;;;;3.58;2.70;;;;;;;-140.66;100.00;55571.53;5126900;28;20058;-75
2023/07/29 03:54:24;;;;;;;5.65;3.00;;;;;;;-140.66;100.00;55571.53;5114513;28;20102;-75
2023/07/29 03:57:10;;;;;;;5.93;3.20;;;;;;;-140.66;100.00;55571.53;5113771;28;20024;-76
2023/07/29 03:59:55;;;;;;;5.32;3.15;;;;;;;-140.66;100.00;55571.53;5114186;28;20027;-75
2023/07/29 04:02:42;;;;;;;3.95;3.15;;;;;;;-140.66;100.00;55571.53;5114108;28;20165;-75
2023/07/29 04:05:28;;;;;;;6.50;3.30;;;;;;;-140.66;100.00;55571.53;5098964;28;20102;-75
2023/07/29 04:08:14;;;;;;;7.80;3.05;;;;;;;-140.66;100.00;55571.53;5114493;28;20024;-75
2023/07/29 04:10:59;;;;;;;8.40;3.13;;;;;;;-140.66;100.00;55571.53;5114433;28;20038;-75
2023/07/29 04:13:45;;;;;;;7.53;3.33;;;;;;;-140.66;100.00;55571.53;5114062;28;20051;-74
2023/07/29 04:16:31;;;;;;;5.93;3.45;;;;;;;-140.66;100.00;55571.53;5114951;28;20024;-74
2023/07/29 04:19:16;;;;;;;4.93;2.95;;;;;;;-140.66;100.00;55571.53;5114133;28;20024;-75
2023/07/29 04:22:02;;;;;;;5.85;3.10;;;;;;;-140.66;100.00;55571.53;5117808;28;20101;-75
2023/07/29 04:24:48;;;;;;;7.38;3.00;;;;;;;-140.66;100.00;55571.53;5118654;28;20069;-75
2023/07/29 04:27:34;;;;;;;5.85;2.80;;;;;;;-140.66;100.00;55571.53;5117900;28;20439;-74
2023/07/29 04:30:20;;;;;;;4.30;2.83;;;;;;;-140.66;100.00;55571.53;5118716;28;20031;-74
2023/07/29 04:33:06;;;;;;;5.15;3.17;;;;;;;-140.66;100.00;55571.53;5118782;28;20033;-75
2023/07/29 04:35:52;;;;;;;4.93;3.17;;;;;;;-140.66;100.00;55571.53;5118402;28;20016;-75
2023/07/29 04:38:37;;;;;;;3.65;2.90;;;;;;;-140.66;100.00;55571.53;5103844;28;20055;-75
2023/07/29 04:41:23;;;;;;;4.45;2.70;;;;;;;-140.66;100.00;55571.53;5117659;28;20059;-75
2023/07/29 04:44:09;;;;;;;9.27;3.03;;;;;;;-140.66;100.00;55571.53;5118046;28;20041;-75
2023/07/29 04:46:55;;;;;;;4.35;3.17;;;;;;;-140.66;100.00;55571.53;5118534;28;20026;-75
2023/07/29 04:49:40;;;;;;;4.70;3.15;;;;;;;-140.66;100.00;55571.53;5117653;28;20023;-75
2023/07/29 04:52:26;;;;;;;4.82;3.10;;;;;;;-140.66;100.00;55571.53;5103225;28;20039;-75
2023/07/29 04:55:12;;;;;;;4.68;3.25;;;;;;;-140.66;100.00;55571.53;5118205;28;20098;-75
2023/07/29 04:57:59;;;;;;;4.80;2.85;;;;;;;-140.66;100.00;55571.53;5117793;28;20032;-74
2023/07/29 05:00:48;;;;;;;5.07;2.88;;;;;;;-140.66;100.00;55571.53;5117394;28;20023;-75
2023/07/29 05:03:34;;;;;;;3.65;3.08;;;;;;;-140.66;100.00;55571.53;5118629;28;20450;-75
2023/07/29 05:06:20;;;;;;;5.22;3.25;;;;;;;-140.66;100.00;55571.53;5117356;28;20095;-74
2023/07/29 05:09:16;;;;;;;8.52;2.88;;;;;;;-140.66;100.00;55571.53;5117955;28;20111;-75
2023/07/29 05:12:02;;;;;;;5.07;3.00;;;;;;;-140.66;100.00;55571.53;5117271;28;20116;-74
2023/07/29 05:14:47;;;;;;;4.13;3.10;;;;;;;-140.66;100.00;55571.53;5117236;28;20031;-74
2023/07/29 05:17:33;;;;;;;5.57;2.97;;;;;;;-140.66;100.00;55571.53;5103282;28;20348;-75
2023/07/29 05:20:19;;;;;;;5.35;3.00;;;;;;;-140.66;100.00;55571.53;5116777;28;20468;-75
2023/07/29 05:23:05;;;;;;;5.65;3.10;;;;;;;-140.66;100.00;55571.53;5116992;28;20106;-75
2023/07/29 05:25:50;;;;;;;6.00;2.80;;;;;;;-140.66;100.00;55571.53;5117469;28;20024;-75
2023/07/29 05:28:36;;;;;;;7.85;3.30;;;;;;;-140.66;100.00;55571.53;5116685;28;20027;-76
2023/07/29 05:31:22;;;;;;;5.70;2.90;;;;;;;-140.66;100.00;55571.53;5115578;28;20027;-75
2023/07/29 05:34:08;;;;;;;4.82;3.10;;;;;;;-140.66;100.00;55571.53;5103033;28;20106;-75
2023/07/29 05:36:54;;;;;;;9.73;3.35;;;;;;;-140.66;100.00;55571.53;5117853;28;20020;-74
2023/07/29 05:39:40;;;;;;;6.47;2.88;;;;;;;-140.66;100.00;55571.53;5116954;28;20023;-75
2023/07/29 05:42:25;;;;;;;5.50;3.40;;;;;;;-140.66;100.00;55571.53;5103703;28;20023;-74
2023/07/29 05:45:11;;;;;;;4.43;3.15;;;;;;;-140.66;100.00;55571.53;5117010;28;20028;-75
2023/07/29 05:47:57;;;;;;;3.95;2.88;;;;;;;-140.66;100.00;55571.53;5117506;28;20031;-75
2023/07/29 05:50:43;;;;;;;12.60;3.22;;;;;;;-140.66;100.00;55571.53;5116901;28;20410;-75
2023/07/29 05:53:29;;;;;;;7.53;3.10;;;;;;;-140.66;100.00;55571.53;5116996;28;20444;-76
2023/07/29 05:56:14;;;;;;;7.00;3.30;;;;;;;-140.66;100.00;55571.53;5120011;28;20451;-76
2023/07/29 05:59:00;;;;;;;5.57;2.65;;;;;;;-140.66;100.00;55571.53;5101488;28;20019;-75
2023/07/29 06:01:46;;;;;;;5.63;3.15;;;;;;;-140.66;100.00;55571.53;5116721;28;20086;-76
2023/07/29 06:04:32;;;;;;;6.88;3.30;;;;;;;-140.66;100.00;55571.53;5116845;28;20027;-75
2023/07/29 06:07:17;;;;;;;4.05;3.15;;;;;;;-140.66;100.00;55571.53;5117283;28;20066;-75
2023/07/29 06:10:03;;;;;;;4.43;3.25;;;;;;;-140.66;100.00;55571.53;5116278;28;20023;-76
2023/07/29 06:12:49;;;;;;;6.13;3.03;;;;;;;-140.66;100.00;55571.53;5117033;28;20088;-77
2023/07/29 06:15:35;;;;;;;5.80;3.15;;;;;;;-140.66;100.00;55571.53;5116593;28;20051;-75
2023/07/29 06:18:21;;;;;;;8.70;3.13;;;;;;;-140.66;100.00;55571.53;5087422;28;20248;-76
2023/07/29 06:21:07;;;;;;;5.15;2.83;;;;;;;-140.66;100.00;55571.53;5115801;28;20108;-75
2023/07/29 06:23:53;;;;;;;6.55;3.90;;;;;;;-140.66;100.00;55571.53;5117057;28;20031;-76
2023/07/29 06:26:39;;;;;;;3.50;3.20;;;;;;;-140.66;100.00;55571.53;5115805;28;20024;-76
2023/07/29 06:29:24;;;;;;;4.13;3.13;;;;;;;-140.66;100.00;55571.53;5100390;28;20046;-75
2023/07/29 06:32:11;;;;;;;4.55;2.90;;;;;;;-140.66;100.00;55571.53;5116146;28;20063;-76
2023/07/29 06:34:57;;;;;;;5.03;2.88;;;;;;;-140.66;100.00;55571.53;5115772;28;20027;-74
2023/07/29 06:37:43;;;;;;;4.43;3.20;;;;;;;-140.66;100.00;55571.53;5101677;28;20028;-75
2023/07/29 06:40:29;;;;;;;5.45;3.25;;;;;;;-140.66;100.00;55571.53;5115494;28;20359;-76
2023/07/29 06:43:14;;;;;;;4.53;2.92;;;;;;;-140.66;100.00;55571.53;5100977;28;20026;-76
2023/07/29 06:46:00;;;;;;;5.80;3.42;;;;;;;-140.66;100.00;55571.53;5116092;28;20020;-76
2023/07/29 06:48:46;;;;;;;6.60;3.13;;;;;;;-140.66;100.00;55571.53;5115700;28;20100;-76
2023/07/29 06:51:34;;;;;;;8.50;3.70;;;;;;;-140.66;100.00;55571.53;5115568;28;20161;-76
2023/07/29 06:54:25;;;;;;;5.78;3.38;;;;;;;-140.66;100.00;55571.53;5116422;28;20031;-76
2023/07/29 06:57:11;;;;;;;4.53;3.28;;;;;;;-140.66;100.00;55571.53;5115150;28;20124;-75
2023/07/29 06:59:57;;;;;;;3.90;3.40;;;;;;;-140.66;100.00;55571.53;5116472;28;20062;-76
2023/07/29 07:02:43;;;;;;;8.05;3.13;;;;;;;-140.66;100.00;55571.53;5101508;28;20120;-76
2023/07/29 07:05:28;;;;;;;4.40;3.03;;;;;;;-140.66;100.00;55571.53;5100178;28;20070;-76
2023/07/29 07:08:14;;;;;;;3.70;2.70;;;;;;;-140.66;100.00;55571.53;5115522;28;20055;-78
2023/07/29 07:11:00;;;;;;;4.43;3.05;;;;;;;-140.66;100.00;55571.53;5114381;28;20082;-75
2023/07/29 07:13:45;;;;;;;4.25;2.90;;;;;;;-140.66;100.00;55571.53;5113848;28;20023;-75
2023/07/29 07:16:31;;;;;;;5.38;2.60;;;;;;;-140.66;100.00;55571.53;5100521;28;20055;-75
2023/07/29 07:19:17;;;;;;;4.70;2.95;;;;;;;-140.66;100.00;55571.53;5100567;28;20368;-76
2023/07/29 07:22:03;;;;;;;6.25;3.03;;;;;;;-140.66;100.00;55571.53;5114960;28;20111;-76
2023/07/29 07:24:49;;;;;;;5.57;3.10;;;;;;;-140.66;100.00;55571.53;5100280;28;20051;-76
2023/07/29 07:27:36;;;;;;;7.20;2.72;;;;;;;-140.66;100.00;55571.53;5114993;28;20030;-76
2023/07/29 07:30:21;;;;;;;5.30;2.78;;;;;;;-140.66;100.00;55571.53;5114528;28;20038;-75
2023/07/29 07:33:07;;;;;;;4.25;3.03;;;;;;;-140.66;100.00;55571.53;5100430;28;20036;-76
2023/07/29 07:35:53;;;;;;;2.90;2.60;;;;;;;-140.66;100.00;55571.53;5115090;28;20031;-76
2023/07/29 07:38:39;;;;;;;4.60;2.85;;;;;;;-140.66;100.00;55571.53;5115071;28;20488;-76
2023/07/29 07:41:24;;;;;;;3.10;2.67;;;;;;;-140.66;100.00;55571.53;5099044;28;20027;-75
2023/07/29 07:44:12;;;;;;;4.88;3.15;;;;;;;-140.66;100.00;55571.53;5100036;28;20402;-75
2023/07/29 07:46:58;;;;;;;5.70;2.63;;;;;;;-140.66;100.00;55571.53;5099019;28;20051;-76
2023/07/29 07:49:44;;;;;;;3.50;2.50;;;;;;;-140.66;100.00;55571.53;5113551;28;20028;-76
2023/07/29 07:52:29;;;;;;;3.08;2.53;;;;;;;-140.66;100.00;55571.53;5115178;28;20027;-75
2023/07/29 07:55:15;;;;;;;6.90;3.20;;;;;;;-140.66;100.00;55571.53;5114763;28;20020;-76
2023/07/29 07:58:01;;;;;;;3.55;2.55;;;;;;;-140.66;100.00;55571.53;5100019;28;20520;-76
2023/07/29 08:00:47;;;;;;;4.45;2.75;;;;;;;-140.66;100.00;55571.53;5115168;28;20027;-76
2023/07/29 08:03:32;;;;;;;3.30;2.78;;;;;;;-140.66;100.00;55571.53;5114125;28;20392;-76
2023/07/29 08:06:18;;;;;;;4.10;2.70;;;;;;;-140.66;100.00;55571.53;5114980;28;20038;-76
2023/07/29 08:09:04;;;;;;;3.65;2.70;;;;;;;-140.66;100.00;55571.53;5101260;28;20027;-76
2023/07/29 08:11:50;;;;;;;4.45;2.65;;;;;;;-140.66;100.00;55571.53;5115317;28;20100;-77
2023/07/29 08:14:36;;;;;;;3.17;2.40;;;;;;;-140.66;100.00;55571.53;5114489;28;20019;-79
2023/07/29 08:17:22;;;;;;;2.85;2.20;;;;;;;-140.66;100.00;55571.53;5098840;28;20110;-75
2023/07/29 08:20:07;;;;;;;5.05;2.50;;;;;;;-140.66;100.00;55571.53;5112942;28;20047;-76
2023/07/29 08:22:53;;;;;;;8.93;2.65;;;;;;;-140.66;100.00;55571.53;5114174;28;20023;-75
2023/07/29 08:25:39;;;;;;;4.28;2.30;;;;;;;-140.66;100.00;55571.53;5114311;28;20039;-77
2023/07/29 08:28:25;;;;;;;4.75;2.30;;;;;;;-140.66;100.00;55571.53;5107426;28;20039;-78
2023/07/29 08:31:10;;;;;;;4.43;2.35;;;;;;;-140.66;100.00;55571.53;5119053;28;20100;-77
2023/07/29 08:33:56;;;;;;;4.10;2.28;;;;;;;-140.66;100.00;55571.53;5114531;28;20173;-76
2023/07/29 08:36:42;;;;;;;4.28;2.50;;;;;;;-140.66;100.00;55571.53;5112786;28;20024;-76
2023/07/29 08:39:28;;;;;;;5.68;3.67;;;;;;;-140.66;100.00;55571.53;5114144;28;20052;-75
2023/07/29 08:42:17;;;;;;;3.45;2.60;;;;;;;-140.66;100.00;55571.53;5100213;28;20024;-76
2023/07/29 08:45:08;;;;;;;4.88;2.30;;;;;;;-140.66;100.00;55571.53;5099718;28;20023;-77
2023/07/29 08:47:58;;;;;;;3.60;2.47;;;;;;;-140.66;100.00;55571.53;5113219;28;20030;-74
2023/07/29 08:50:45;;;;;;;8.77;2.70;;;;;;;-140.66;100.00;55571.53;5108916;28;20039;-76
2023/07/29 08:53:31;;;;;;;3.08;2.50;;;;;;;-140.66;100.00;55571.53;5115313;28;20027;-76
2023/07/29 08:56:17;;;;;;;3.60;2.28;;;;;;;-140.66;100.00;55571.53;5101841;28;20051;-75
2023/07/29 08:59:04;;;;;;;3.15;2.30;;;;;;;-140.66;100.00;55571.53;5119068;28;20027;-75
2023/07/29 09:01:55;;;;;;;5.38;2.58;;;;;;;-140.66;100.00;55571.53;5118686;28;20031;-76
2023/07/29 09:04:41;;;;;;;3.95;2.40;;;;;;;-140.66;100.00;55571.53;5117758;28;20032;-76
2023/07/29 09:07:28;;;;;;;3.17;2.45;;;;;;;-140.66;100.00;55571.53;5117398;28;20088;-78
2023/07/29 09:10:15;;;;;;;3.30;2.40;;;;;;;-140.66;100.00;55571.53;5118157;28;20031;-76
2023/07/29 09:13:03;;;;;;;2.50;2.05;;;;;;;-140.66;100.00;55571.53;5117653;28;20429;-76
2023/07/29 09:15:49;;;;;;;3.03;2.50;;;;;;;-140.66;100.00;55571.53;5103138;28;20110;-76
2023/07/29 09:18:34;;;;;;;4.10;2.38;;;;;;;-140.66;100.00;55571.53;5117505;28;20023;-76
2023/07/29 09:21:28;;;;;;;14.48;2.95;;;;;;;-140.66;100.00;55571.53;5117926;28;20048;-76
2023/07/29 09:24:18;;;;;;;3.47;2.70;;;;;;;-140.66;100.00;55571.53;5117582;28;20023;-76
2023/07/29 09:27:04;;;;;;;8.18;2.67;;;;;;;-140.66;100.00;55571.53;5116711;28;20028;-75
2023/07/29 09:29:49;;;;;;;6.78;2.80;;;;;;;-140.66;100.00;55571.53;5118778;28;20076;-75
2023/07/29 09:32:39;;;;;;;5.53;2.58;;;;;;;-140.66;100.00;55571.53;5117040;28;20173;-75
2023/07/29 09:35:30;;;;;;;3.08;2.50;;;;;;;-140.66;100.00;55571.53;5116900;28;20159;-75
2023/07/29 09:38:15;;;;;;;7.43;2.78;;;;;;;-140.66;100.00;55571.53;5116872;28;20033;-76
2023/07/29 09:41:01;;;;;;;4.35;2.40;;;;;;;-140.66;100.00;55571.53;5117803;28;20075;-75
2023/07/29 09:43:47;;;;;;;6.28;2.58;;;;;;;-140.66;100.00;55571.53;5117402;28;20034;-76
2023/07/29 09:46:37;;;;;;;3.10;2.20;;;;;;;-140.66;100.00;55571.53;5102639;28;20452;-76
2023/07/29 09:49:23;;;;;;;3.70;2.30;;;;;;;-140.66;100.00;55571.53;5117289;28;20027;-76
2023/07/29 09:52:09;;;;;;;2.95;2.10;;;;;;;-140.66;100.00;55571.53;5102197;28;20033;-76
2023/07/29 09:54:55;;;;;;;5.47;2.50;;;;;;;-140.66;100.00;55571.53;5103425;28;20348;-76
2023/07/29 09:57:40;;;;;;;2.38;2.17;;;;;;;-140.66;100.00;55571.53;5116698;28;20043;-76
2023/07/29 10:00:28;;;;;;;3.30;1.83;;;;;;;-140.66;100.00;55571.53;5116929;28;20457;-75
2023/07/29 10:03:14;;;;;;;3.85;2.00;;;;;;;-140.66;100.00;55571.53;5116360;28;20038;-77
2023/07/29 10:06:02;;;;;;;3.17;2.10;;;;;;;-140.66;100.00;55571.53;5115443;28;20108;-76
2023/07/29 10:08:50;;;;;;;4.03;2.30;;;;;;;-140.66;100.00;55571.53;5116985;28;20023;-76
2023/07/29 10:11:37;;;;;;;2.67;2.40;;;;;;;-140.66;100.00;55571.53;5115330;28;20073;-76
2023/07/29 10:14:25;;;;;;;2.55;2.10;;;;;;;-140.66;100.00;55571.53;5101431;28;20098;-76
2023/07/29 10:17:11;;;;;;;4.78;2.13;;;;;;;-140.66;100.00;55571.53;5116593;28;20098;-76
2023/07/29 10:19:59;;;;;;;4.25;2.10;;;;;;;-140.66;100.00;55571.53;5116444;28;20034;-75
2023/07/29 10:22:47;;;;;;;3.65;2.10;;;;;;;-140.66;100.00;55571.53;5116732;28;20024;-76
2023/07/29 10:25:39;;;;;;;2.78;2.05;;;;;;;-140.66;100.00;55571.53;5116166;28;20036;-75
2023/07/29 10:28:26;;;;;;;2.70;1.95;;;;;;;-140.66;100.00;55571.53;5100861;28;20343;-76
2023/07/29 10:31:13;;;;;;;2.15;1.90;;;;;;;-140.66;100.00;55571.53;5116837;28;20150;-76
2023/07/29 10:33:58;;;;;;;2.83;2.03;;;;;;;-140.66;100.00;55571.53;5115697;28;20031;-76
2023/07/29 10:36:46;;;;;;;3.80;2.25;;;;;;;-140.66;100.00;55571.53;5115631;28;20039;-75
2023/07/29 10:39:40;;;;;;;5.32;2.50;;;;;;;-140.66;100.00;55571.53;5101195;28;20027;-75
2023/07/29 10:42:25;;;;;;;4.97;2.15;;;;;;;-140.66;100.00;55571.53;5115424;28;20038;-75
2023/07/29 10:45:19;;;;;;;3.08;2.05;;;;;;;-140.66;100.00;55571.53;5100753;28;20096;-76
2023/07/29 10:48:26;;;;;;;2.53;1.95;;;;;;;-140.66;100.00;55571.53;5115452;28;20466;-76
2023/07/29 10:51:29;;;;;;;3.47;2.28;;;;;;;-140.66;100.00;55571.53;5113993;28;20428;-76
2023/07/29 10:54:15;;;;;;;2.85;2.10;;;;;;;-140.66;100.00;55571.53;5116755;28;20106;-75
2023/07/29 10:57:01;;;;;;;4.70;2.30;;;;;;;-140.66;100.00;55571.53;5115770;28;20023;-76
2023/07/29 10:59:55;;;;;;;5.35;2.13;;;;;;;-140.66;100.00;55571.53;5122570;28;20039;-75
2023/07/29 11:02:41;;;;;;;2.60;2.08;;;;;;;-140.66;100.00;55571.53;5115060;28;20023;-76
2023/07/29 11:05:42;;;;;;;2.83;2.05;;;;;;;-140.66;100.00;55571.53;5101390;28;20078;-76
2023/07/29 11:08:29;;;;;;;3.15;2.20;;;;;;;-140.66;100.00;55571.53;5115096;28;20023;-76
2023/07/29 11:11:15;;;;;;;2.45;2.15;;;;;;;-140.66;100.00;55571.53;5116052;28;20030;-76
2023/07/29 11:14:01;;;;;;;3.13;2.17;;;;;;;-140.66;100.00;55571.53;5116043;28;20036;-76
2023/07/29 11:16:48;;;;;;;6.75;2.30;;;;;;;-140.66;100.00;55571.53;5116347;28;20325;-74
2023/07/29 11:19:35;;;;;;;3.00;2.20;;;;;;;-140.66;100.00;55571.53;5108191;28;20398;-76
2023/07/29 11:22:21;;;;;;;6.05;2.10;;;;;;;-140.66;100.00;55571.53;5101151;28;20040;-76
2023/07/29 11:25:09;;;;;;;2.60;2.20;;;;;;;-140.66;100.00;55571.53;5114914;28;20114;-77
2023/07/29 11:27:57;;;;;;;4.85;2.33;;;;;;;-140.66;100.00;55571.53;5114898;28;20066;-75
2023/07/29 11:30:42;;;;;;;3.85;2.42;;;;;;;-140.66;100.00;55571.53;5114937;28;20030;-76
2023/07/29 11:33:28;;;;;;;4.35;2.70;;;;;;;-140.66;100.00;55571.53;5114405;28;20020;-76
2023/07/29 11:36:19;;;;;;;3.35;1.95;;;;;;;-140.66;100.00;55571.53;5115023;28;20023;-76
2023/07/29 11:39:10;;;;;;;4.82;2.22;;;;;;;-140.66;100.00;55571.53;5100112;28;20465;-76
2023/07/29 11:41:55;;;;;;;6.05;2.30;;;;;;;-140.66;100.00;55571.53;5113441;28;20356;-75
2023/07/29 11:44:42;;;;;;;2.65;1.95;;;;;;;-140.66;100.00;55571.53;5114701;28;20023;-77
2023/07/29 11:47:27;;;;;;;8.70;2.50;;;;;;;-140.66;100.00;55571.53;5099369;28;20027;-76
2023/07/29 11:50:14;;;;;;;6.13;2.55;;;;;;;-140.66;100.00;55571.53;5115709;28;20108;-76
2023/07/29 11:53:00;;;;;;;3.63;2.10;;;;;;;-140.66;100.00;55571.53;5115269;28;20031;-76
2023/07/29 11:55:51;;;;;;;3.28;1.98;;;;;;;-140.66;100.00;55571.53;5100102;28;20020;-75
2023/07/29 11:58:37;;;;;;;1.73;1.60;;;;;;;-140.66;100.00;55571.53;5115301;28;20059;-77
2023/07/29 12:01:23;;;;;;;4.63;2.08;;;;;;;-140.66;100.00;55571.53;5114501;28;20031;-76
2023/07/29 12:04:09;;;;;;;3.85;2.25;;;;;;;-140.66;100.00;55571.53;5113608;28;20132;-77
2023/07/29 12:06:56;;;;;;;4.30;2.03;;;;;;;-140.66;100.00;55571.53;5099584;28;20024;-74
2023/07/29 12:09:49;;;;;;;4.18;2.30;;;;;;;-140.66;100.00;55571.53;5113871;28;20038;-76
2023/07/29 12:12:45;;;;;;;2.88;1.98;;;;;;;-140.66;100.00;55571.53;5113352;28;20092;-76
2023/07/29 12:15:30;;;;;;;5.07;2.00;;;;;;;-140.66;100.00;55571.53;5114612;28;20020;-75
2023/07/29 12:18:16;;;;;;;2.13;1.92;;;;;;;-140.66;100.00;55571.53;5114126;28;20482;-75
2023/07/29 12:21:03;;;;;;;3.65;2.15;;;;;;;-140.66;100.00;55571.53;5113519;28;20082;-76
2023/07/29 12:23:50;;;;;;;2.45;1.90;;;;;;;-140.66;100.00;55571.53;5099850;28;20019;-76
2023/07/29 12:26:36;;;;;;;3.95;2.22;;;;;;;-140.66;100.00;55571.53;5114243;28;20039;-77
2023/07/29 12:29:22;;;;;;;2.88;2.00;;;;;;;-140.66;100.00;55571.53;5100400;28;20452;-76
2023/07/29 12:32:09;;;;;;;5.85;1.90;;;;;;;-140.66;100.00;55571.53;5112962;28;20097;-76
2023/07/29 12:34:54;;;;;;;2.17;1.90;;;;;;;-140.66;100.00;55571.53;5113817;28;20027;-76
2023/07/29 12:37:43;;;;;;;2.78;2.33;;;;;;;-140.66;100.00;55571.53;5115189;28;20024;-76